Time,TemperatureF,DewpointF,PressureIn,WindDirection,WindDirectionDegrees,WindSpeedMPH,WindSpeedGustMPH,Humidity,HourlyPrecipIn,Conditions,Clouds,dailyrainin,SoftwareType,DateUTC
2013-03-08 00:00:00,32.9,32.7,30.00,North,360,5.8,5.8,99,0.01,RA,,0.00,WeatherDisplay:10.37,2013-03-08 05:00:00,
2013-03-08 00:03:00,32.9,32.7,30.00,North,360,5.8,5.8,99,0.01,RA,,0.00,WeatherDisplay:10.37,2013-03-08 05:03:00,
2013-03-08 00:04:00,32.9,32.7,30.00,SW,225,4.6,4.6,99,0.01,RA,,0.00,WeatherDisplay:10.37,2013-03-08 05:04:00,
2013-03-08 00:09:00,32.9,32.7,30.00,NW,315,8.1,8.1,99,0.01,RA,,0.00,WeatherDisplay:10.37,2013-03-08 05:09:00,
2013-03-08 00:14:00,32.9,32.7,30.00,NW,315,6.9,6.9,99,0.01,CLR,,0.00,WeatherDisplay:10.37,2013-03-08 05:14:00,
2013-03-08 00:19:00,32.9,32.7,30.00,NNW,338,5.8,5.8,99,0.02,RA,,0.01,WeatherDisplay:10.37,2013-03-08 05:19:00,
2013-03-08 00:24:00,32.9,32.7,30.00,NW,315,5.8,5.8,99,0.02,RA,,0.01,WeatherDisplay:10.37,2013-03-08 05:24:00,
2013-03-08 00:30:00,32.9,32.7,30.00,West,270,6.9,6.9,99,0.02,CLR,,0.01,WeatherDisplay:10.37,2013-03-08 05:30:00,
2013-03-08 00:35:00,32.9,32.7,30.00,WNW,292,9.2,9.2,99,0.01,CLR,,0.01,WeatherDisplay:10.37,2013-03-08 05:35:00,
2013-03-08 00:40:00,32.9,32.7,30.00,NNW,338,5.8,5.8,99,0.01,CLR,,0.01,WeatherDisplay:10.37,2013-03-08 05:40:00,
2013-03-08 00:45:00,32.9,32.7,30.00,NW,315,9.2,9.2,99,0.01,CLR,,0.01,WeatherDisplay:10.37,2013-03-08 05:45:00,
2013-03-08 00:50:00,32.9,32.7,30.00,NNW,338,5.8,6.0,99,0.01,CLR,,0.01,WeatherDisplay:10.37,2013-03-08 05:50:00,
2013-03-08 00:55:00,32.9,32.7,30.00,NNE,22,8.1,8.1,99,0.01,CLR,,0.01,WeatherDisplay:10.37,2013-03-08 05:55:00,
2013-03-08 01:00:00,32.9,32.7,30.00,NW,315,5.8,5.8,99,0.01,CLR,,0.01,WeatherDisplay:10.37,2013-03-08 06:00:00,
2013-03-08 01:05:00,32.9,32.7,30.00,NE,45,5.8,5.8,99,0.01,CLR,,0.01,WeatherDisplay:10.37,2013-03-08 06:05:00,
2013-03-08 01:10:00,32.9,32.7,30.00,West,270,6.9,7.1,99,0.01,CLR,,0.01,WeatherDisplay:10.37,2013-03-08 06:10:00,
2013-03-08 01:15:00,32.9,32.7,30.00,WNW,292,6.9,6.9,99,0.01,CLR,,0.01,WeatherDisplay:10.37,2013-03-08 06:15:00,
2013-03-08 01:21:00,32.9,32.7,30.00,NW,315,6.3,6.3,99,0.00,CLR,,0.01,WeatherDisplay:10.37,2013-03-08 06:21:00,
2013-03-08 01:26:00,32.9,32.7,30.00,North,360,9.2,9.2,99,0.00,CLR,,0.01,WeatherDisplay:10.37,2013-03-08 06:26:00,
2013-03-08 01:31:00,32.9,32.7,30.00,North,360,9.2,9.2,99,0.01,RA,,0.02,WeatherDisplay:10.37,2013-03-08 06:31:00,
2013-03-08 01:36:00,32.9,32.7,29.99,NNW,338,4.6,4.6,99,0.01,RA,,0.02,WeatherDisplay:10.37,2013-03-08 06:36:00,
2013-03-08 01:41:00,32.9,32.7,29.99,NW,315,5.8,5.8,99,0.01,,,0.02,WeatherDisplay:10.37,2013-03-08 06:41:00,
2013-03-08 01:46:00,32.9,32.7,29.99,NW,315,10.4,10.4,99,0.01,CLR,,0.02,WeatherDisplay:10.37,2013-03-08 06:46:00,
2013-03-08 01:51:00,32.9,32.7,29.99,NW,315,8.1,8.1,99,0.01,CLR,,0.02,WeatherDisplay:10.37,2013-03-08 06:51:00,
2013-03-08 01:56:00,32.9,32.4,29.99,WNW,292,6.9,6.9,98,0.01,CLR,,0.02,WeatherDisplay:10.37,2013-03-08 06:56:00,
2013-03-08 02:01:00,33.1,32.6,29.99,NW,315,8.1,8.1,98,0.01,CLR,,0.02,WeatherDisplay:10.37,2013-03-08 07:01:00,
2013-03-08 02:06:00,33.1,32.6,29.99,NW,315,6.9,6.9,98,0.01,CLR,,0.02,WeatherDisplay:10.37,2013-03-08 07:06:00,
2013-03-08 02:12:00,33.1,32.3,29.99,WNW,292,9.2,9.2,97,0.01,CLR,,0.02,WeatherDisplay:10.37,2013-03-08 07:12:00,
2013-03-08 02:17:00,33.1,32.3,29.98,NNE,22,11.5,11.5,97,0.01,CLR,,0.02,WeatherDisplay:10.37,2013-03-08 07:17:00,
2013-03-08 02:22:00,33.1,32.3,29.98,West,270,8.1,8.1,97,0.02,RA,,0.03,WeatherDisplay:10.37,2013-03-08 07:22:00,
2013-03-08 02:27:00,33.1,32.3,29.98,North,360,11.5,11.5,97,0.02,RA,,0.03,WeatherDisplay:10.37,2013-03-08 07:27:00,
2013-03-08 02:32:00,32.9,32.4,29.98,ENE,68,8.1,8.1,98,0.01,CLR,,0.03,WeatherDisplay:10.37,2013-03-08 07:32:00,
2013-03-08 02:37:00,32.7,32.2,29.97,North,360,7.3,7.3,98,0.01,CLR,,0.03,WeatherDisplay:10.37,2013-03-08 07:37:00,
2013-03-08 02:42:00,32.7,32.2,29.97,NE,45,8.1,8.1,98,0.01,CLR,,0.03,WeatherDisplay:10.37,2013-03-08 07:42:00,
2013-03-08 02:47:00,32.7,32.5,29.97,NNW,338,6.8,6.8,99,0.01,CLR,,0.03,WeatherDisplay:10.37,2013-03-08 07:47:00,
2013-03-08 02:52:00,32.7,32.5,29.97,NW,315,10.4,10.4,99,0.01,CLR,,0.03,WeatherDisplay:10.37,2013-03-08 07:52:00,
2013-03-08 02:58:00,32.7,32.5,29.97,NNW,338,9.2,9.2,99,0.01,CLR,,0.03,WeatherDisplay:10.37,2013-03-08 07:58:00,
2013-03-08 03:03:00,32.7,32.5,29.97,South,180,6.9,6.9,99,0.01,CLR,,0.03,WeatherDisplay:10.37,2013-03-08 08:03:00,
2013-03-08 03:08:00,32.5,32.3,29.97,SSW,202,6.3,6.4,99,0.01,CLR,,0.03,WeatherDisplay:10.37,2013-03-08 08:08:00,
2013-03-08 03:13:00,32.5,32.3,29.96,NNW,338,8.1,9.2,99,0.01,CLR,,0.03,WeatherDisplay:10.37,2013-03-08 08:13:00,
2013-03-08 03:18:00,32.5,32.3,29.96,East,90,6.9,6.9,99,0.01,CLR,,0.03,WeatherDisplay:10.37,2013-03-08 08:18:00,
2013-03-08 03:23:00,32.5,32.3,29.96,NW,315,8.3,8.3,99,0.00,CLR,,0.03,WeatherDisplay:10.37,2013-03-08 08:23:00,
2013-03-08 03:28:00,32.5,32.3,29.95,NNW,338,8.1,8.1,99,0.00,CLR,,0.03,WeatherDisplay:10.37,2013-03-08 08:28:00,
2013-03-08 03:33:00,32.5,32.3,29.95,NE,45,6.9,6.9,99,0.00,CLR,,0.03,WeatherDisplay:10.37,2013-03-08 08:33:00,
2013-03-08 03:38:00,32.5,32.3,29.95,NW,315,8.3,8.3,99,0.00,CLR,,0.03,WeatherDisplay:10.37,2013-03-08 08:38:00,
2013-03-08 03:43:00,32.5,32.3,29.95,NW,315,6.9,6.9,99,0.00,CLR,,0.03,WeatherDisplay:10.37,2013-03-08 08:43:00,
2013-03-08 03:48:00,32.5,32.3,29.95,NNE,22,8.1,8.1,99,0.00,CLR,,0.03,WeatherDisplay:10.37,2013-03-08 08:48:00,
2013-03-08 03:54:00,32.5,32.3,29.95,NNW,338,8.1,8.1,99,0.00,CLR,,0.03,WeatherDisplay:10.37,2013-03-08 08:54:00,
2013-03-08 03:59:00,32.5,32.3,29.95,WSW,248,8.8,8.8,99,0.00,CLR,,0.03,WeatherDisplay:10.37,2013-03-08 08:59:00,
2013-03-08 04:04:00,32.5,32.3,29.95,North,360,6.9,6.9,99,0.00,CLR,,0.03,WeatherDisplay:10.37,2013-03-08 09:04:00,
2013-03-08 04:09:00,32.5,32.3,29.95,North,360,8.1,8.1,99,0.00,CLR,,0.03,WeatherDisplay:10.37,2013-03-08 09:09:00,
2013-03-08 04:14:00,32.5,32.3,29.95,WNW,292,9.2,9.2,99,0.00,CLR,,0.03,WeatherDisplay:10.37,2013-03-08 09:14:00,
2013-03-08 04:19:00,32.4,32.2,29.95,NNW,338,10.4,10.4,99,0.00,CLR,,0.03,WeatherDisplay:10.37,2013-03-08 09:19:00,
2013-03-08 04:24:00,32.4,32.2,29.95,NNE,22,4.6,4.6,99,0.00,CLR,,0.03,WeatherDisplay:10.37,2013-03-08 09:24:00,
2013-03-08 04:29:00,32.4,32.2,29.95,NNE,22,5.8,5.8,99,0.00,CLR,,0.03,WeatherDisplay:10.37,2013-03-08 09:29:00,
2013-03-08 04:34:00,32.4,32.2,29.95,NW,315,6.9,6.9,99,0.00,CLR,,0.03,WeatherDisplay:10.37,2013-03-08 09:34:00,
2013-03-08 04:39:00,32.4,32.2,29.95,WSW,248,4.6,4.6,99,0.00,CLR,,0.03,WeatherDisplay:10.37,2013-03-08 09:39:00,
2013-03-08 04:45:00,32.4,32.2,29.95,NE,45,6.3,6.3,99,0.00,CLR,,0.03,WeatherDisplay:10.37,2013-03-08 09:45:00,
2013-03-08 04:50:00,32.4,32.2,29.95,NNW,338,5.8,5.8,99,0.00,CLR,,0.03,WeatherDisplay:10.37,2013-03-08 09:50:00,
2013-03-08 04:55:00,32.4,32.2,29.95,North,360,10.4,10.4,99,0.00,CLR,,0.03,WeatherDisplay:10.37,2013-03-08 09:55:00,
2013-03-08 05:00:00,32.2,32.0,29.95,NW,315,5.8,5.8,99,0.00,CLR,,0.03,WeatherDisplay:10.37,2013-03-08 10:00:00,
2013-03-08 05:05:00,32.2,32.0,29.95,North,360,9.2,9.2,99,0.00,CLR,,0.03,WeatherDisplay:10.37,2013-03-08 10:05:00,
2013-03-08 05:10:00,32.2,32.0,29.95,East,90,4.6,4.6,99,0.00,CLR,,0.03,WeatherDisplay:10.37,2013-03-08 10:10:00,
2013-03-08 05:15:00,32.2,32.0,29.95,NW,315,5.8,5.8,99,0.00,CLR,,0.03,WeatherDisplay:10.37,2013-03-08 10:15:00,
2013-03-08 05:20:00,32.2,32.0,29.95,NW,315,4.7,4.7,99,0.00,CLR,,0.03,WeatherDisplay:10.37,2013-03-08 10:20:00,
2013-03-08 05:25:00,32.2,32.0,29.95,NNW,338,4.6,4.6,99,0.00,CLR,,0.03,WeatherDisplay:10.37,2013-03-08 10:25:00,
2013-03-08 05:30:00,32.2,32.0,29.95,WSW,248,6.9,6.9,99,0.00,CLR,,0.03,WeatherDisplay:10.37,2013-03-08 10:30:00,
2013-03-08 05:36:00,32.2,32.0,29.95,NNW,338,8.1,8.1,99,0.00,CLR,,0.03,WeatherDisplay:10.37,2013-03-08 10:36:00,
2013-03-08 05:41:00,32.2,32.0,29.95,NW,315,6.3,6.3,99,0.00,CLR,,0.03,WeatherDisplay:10.37,2013-03-08 10:41:00,
2013-03-08 05:46:00,32.0,31.8,29.95,NW,315,16.1,16.1,99,0.00,CLR,,0.03,WeatherDisplay:10.37,2013-03-08 10:46:00,
2013-03-08 05:51:00,32.0,31.8,29.94,NNW,338,8.1,8.1,99,0.00,CLR,,0.03,WeatherDisplay:10.37,2013-03-08 10:51:00,
2013-03-08 05:56:00,32.0,31.8,29.94,North,360,6.9,6.9,99,0.00,CLR,,0.03,WeatherDisplay:10.37,2013-03-08 10:56:00,
2013-03-08 06:01:00,32.0,31.8,29.94,WNW,292,10.4,10.4,99,0.00,CLR,,0.03,WeatherDisplay:10.37,2013-03-08 11:01:00,
2013-03-08 06:06:00,32.0,31.8,29.94,NW,315,5.8,5.8,99,0.00,CLR,,0.03,WeatherDisplay:10.37,2013-03-08 11:06:00,
2013-03-08 06:11:00,32.0,31.8,29.94,NNW,338,8.1,8.1,99,0.00,CLR,,0.03,WeatherDisplay:10.37,2013-03-08 11:11:00,
2013-03-08 06:16:00,31.8,31.6,29.94,ENE,68,5.8,5.8,99,0.00,CLR,,0.03,WeatherDisplay:10.37,2013-03-08 11:16:00,
2013-03-08 06:21:00,31.8,31.6,29.94,NW,315,10.4,10.4,99,0.00,CLR,,0.03,WeatherDisplay:10.37,2013-03-08 11:21:00,
2013-03-08 06:27:00,31.8,31.6,29.95,NNW,338,6.9,6.9,99,0.00,CLR,,0.03,WeatherDisplay:10.37,2013-03-08 11:27:00,
2013-03-08 06:32:00,31.6,31.4,29.95,NNW,338,6.9,7.1,99,0.00,CLR,,0.03,WeatherDisplay:10.37,2013-03-08 11:32:00,
2013-03-08 06:37:00,31.6,31.4,29.95,NW,315,4.6,4.6,99,0.00,CLR,,0.03,WeatherDisplay:10.37,2013-03-08 11:37:00,
2013-03-08 06:42:00,31.6,31.4,29.95,NW,315,8.1,8.1,99,0.00,CLR,,0.03,WeatherDisplay:10.37,2013-03-08 11:42:00,
2013-03-08 06:47:00,31.6,31.4,29.95,NW,315,4.6,4.6,99,0.00,CLR,,0.03,WeatherDisplay:10.37,2013-03-08 11:47:00,
2013-03-08 06:52:00,31.6,31.4,29.95,WNW,292,8.1,8.1,99,0.00,CLR,,0.03,WeatherDisplay:10.37,2013-03-08 11:52:00,
2013-03-08 06:57:00,31.6,31.4,29.95,WNW,292,5.8,5.8,99,0.00,CLR,,0.03,WeatherDisplay:10.37,2013-03-08 11:57:00,
2013-03-08 07:02:00,31.6,31.4,29.95,NW,315,6.9,6.9,99,0.00,CLR,,0.03,WeatherDisplay:10.37,2013-03-08 12:02:00,
2013-03-08 07:07:00,31.6,31.4,29.95,North,360,8.1,8.1,99,0.00,CLR,,0.03,WeatherDisplay:10.37,2013-03-08 12:07:00,
2013-03-08 07:13:00,31.6,31.4,29.95,NNW,338,7.3,7.3,99,0.00,CLR,,0.03,WeatherDisplay:10.37,2013-03-08 12:13:00,
2013-03-08 07:18:00,31.8,31.6,29.95,NNW,338,6.9,6.9,99,0.00,CLR,,0.03,WeatherDisplay:10.37,2013-03-08 12:18:00,
2013-03-08 07:23:00,31.8,31.6,29.95,NE,45,8.1,8.1,99,0.00,CLR,,0.03,WeatherDisplay:10.37,2013-03-08 12:23:00,
2013-03-08 07:28:00,31.8,31.6,29.95,NW,315,5.8,5.8,99,0.00,CLR,,0.03,WeatherDisplay:10.37,2013-03-08 12:28:00,
2013-03-08 07:33:00,31.8,31.6,29.95,South,180,9.2,9.2,99,0.00,CLR,,0.03,WeatherDisplay:10.37,2013-03-08 12:33:00,
2013-03-08 07:38:00,31.8,31.6,29.95,West,270,5.8,5.8,99,0.00,CLR,,0.03,WeatherDisplay:10.37,2013-03-08 12:38:00,
2013-03-08 07:43:00,31.8,31.6,29.95,NNE,22,9.2,9.2,99,0.00,CLR,,0.03,WeatherDisplay:10.37,2013-03-08 12:43:00,
2013-03-08 07:48:00,31.8,31.6,29.97,WNW,292,4.7,4.7,99,0.00,CLR,,0.03,WeatherDisplay:10.37,2013-03-08 12:48:00,
2013-03-08 07:53:00,31.8,31.6,29.97,NW,315,10.4,10.4,99,0.00,CLR,,0.03,WeatherDisplay:10.37,2013-03-08 12:53:00,
2013-03-08 07:58:00,32.0,31.8,29.97,NNW,338,6.9,6.9,99,0.00,CLR,,0.03,WeatherDisplay:10.37,2013-03-08 12:58:00,
2013-03-08 08:04:00,32.0,31.8,29.96,West,270,6.8,6.8,99,0.00,CLR,,0.03,WeatherDisplay:10.37,2013-03-08 13:04:00,
2013-03-08 08:09:00,32.2,32.0,29.96,WSW,248,6.9,6.9,99,0.00,CLR,,0.03,WeatherDisplay:10.37,2013-03-08 13:09:00,
2013-03-08 08:14:00,32.2,32.0,29.96,ESE,112,5.8,5.8,99,0.00,CLR,,0.03,WeatherDisplay:10.37,2013-03-08 13:14:00,
2013-03-08 08:19:00,32.0,31.8,29.96,NW,315,10.4,10.4,99,0.00,CLR,,0.03,WeatherDisplay:10.37,2013-03-08 13:19:00,
2013-03-08 08:24:00,32.0,31.8,29.96,NW,315,8.1,8.1,99,0.00,CLR,,0.03,WeatherDisplay:10.37,2013-03-08 13:24:00,
2013-03-08 08:29:00,32.2,32.0,29.96,ENE,68,5.8,5.8,99,0.00,CLR,,0.03,WeatherDisplay:10.37,2013-03-08 13:29:00,
2013-03-08 08:34:00,32.2,32.0,29.96,NNW,338,9.4,9.4,99,0.00,CLR,,0.03,WeatherDisplay:10.37,2013-03-08 13:34:00,
2013-03-08 08:39:00,32.4,32.2,29.96,WNW,292,8.1,8.1,99,0.00,CLR,,0.03,WeatherDisplay:10.37,2013-03-08 13:39:00,
2013-03-08 08:44:00,32.4,32.2,29.96,North,360,5.8,5.8,99,0.00,CLR,,0.03,WeatherDisplay:10.37,2013-03-08 13:44:00,
2013-03-08 08:49:00,32.5,32.3,29.97,ENE,68,8.3,8.3,99,0.00,CLR,,0.03,WeatherDisplay:10.37,2013-03-08 13:49:00,
2013-03-08 08:55:00,32.5,32.3,29.97,WNW,292,8.3,8.3,99,0.00,CLR,,0.03,WeatherDisplay:10.37,2013-03-08 13:55:00,
2013-03-08 09:00:00,32.5,32.3,29.97,North,360,6.9,6.9,99,0.00,CLR,,0.03,WeatherDisplay:10.37,2013-03-08 14:00:00,
2013-03-08 09:05:00,32.5,32.3,29.97,NW,315,10.4,10.4,99,0.00,CLR,,0.03,WeatherDisplay:10.37,2013-03-08 14:05:00,
2013-03-08 09:10:00,32.5,32.3,29.97,West,270,9.2,9.2,99,0.00,CLR,,0.03,WeatherDisplay:10.37,2013-03-08 14:10:00,
2013-03-08 09:15:00,32.5,32.3,29.97,NW,315,8.1,8.1,99,0.00,CLR,,0.03,WeatherDisplay:10.37,2013-03-08 14:15:00,
2013-03-08 09:20:00,32.5,32.3,29.97,NE,45,9.2,9.2,99,0.00,CLR,,0.03,WeatherDisplay:10.37,2013-03-08 14:20:00,
2013-03-08 09:25:00,32.5,32.3,29.97,WNW,292,12.7,12.7,99,0.00,CLR,,0.03,WeatherDisplay:10.37,2013-03-08 14:25:00,
2013-03-08 09:30:00,32.5,32.3,29.97,NW,315,10.9,10.9,99,0.00,CLR,,0.03,WeatherDisplay:10.37,2013-03-08 14:30:00,
2013-03-08 09:35:00,32.5,32.3,29.97,North,360,12.4,12.4,99,0.00,CLR,,0.03,WeatherDisplay:10.37,2013-03-08 14:35:00,
2013-03-08 09:40:00,32.5,32.3,29.97,NW,315,11.5,11.5,99,0.00,CLR,,0.03,WeatherDisplay:10.37,2013-03-08 14:40:00,
2013-03-08 09:46:00,32.5,32.3,29.97,North,360,10.4,10.4,99,0.00,CLR,,0.03,WeatherDisplay:10.37,2013-03-08 14:46:00,
2013-03-08 09:51:00,32.5,32.3,29.97,WNW,292,10.4,10.4,99,0.00,CLR,,0.03,WeatherDisplay:10.37,2013-03-08 14:51:00,
2013-03-08 09:56:00,32.5,32.3,29.97,NW,315,8.8,8.8,99,0.00,CLR,,0.03,WeatherDisplay:10.37,2013-03-08 14:56:00,
2013-03-08 10:01:00,32.5,32.3,29.98,NW,315,9.2,9.2,99,0.00,CLR,,0.03,WeatherDisplay:10.37,2013-03-08 15:01:00,
2013-03-08 10:06:00,32.5,32.3,29.98,NW,315,5.8,5.8,99,0.00,CLR,,0.03,WeatherDisplay:10.37,2013-03-08 15:06:00,
2013-03-08 10:11:00,32.5,32.3,29.98,WNW,292,6.9,6.9,99,0.00,CLR,,0.03,WeatherDisplay:10.37,2013-03-08 15:11:00,
2013-03-08 10:16:00,32.9,32.7,29.98,NW,315,16.1,16.1,99,0.00,CLR,,0.03,WeatherDisplay:10.37,2013-03-08 15:16:00,
2013-03-08 10:21:00,32.9,32.4,29.98,NW,315,9.2,9.2,98,0.00,CLR,,0.03,WeatherDisplay:10.37,2013-03-08 15:21:00,
2013-03-08 10:26:00,33.1,32.3,29.98,NNW,338,10.4,10.4,97,0.00,CLR,,0.03,WeatherDisplay:10.37,2013-03-08 15:26:00,
2013-03-08 10:31:00,33.4,32.6,29.98,WNW,292,8.1,8.1,97,0.00,CLR,,0.03,WeatherDisplay:10.37,2013-03-08 15:31:00,
2013-03-08 10:37:00,33.6,32.6,29.98,NNW,338,9.4,9.4,96,0.00,CLR,,0.03,WeatherDisplay:10.37,2013-03-08 15:37:00,
2013-03-08 10:42:00,33.6,32.6,29.98,WNW,292,8.1,8.1,96,0.00,CLR,,0.03,WeatherDisplay:10.37,2013-03-08 15:42:00,
2013-03-08 10:47:00,33.8,32.5,29.98,West,270,10.4,10.4,95,0.00,CLR,,0.03,WeatherDisplay:10.37,2013-03-08 15:47:00,
2013-03-08 10:52:00,33.6,32.3,29.99,NW,315,15.0,15.0,95,0.00,CLR,,0.03,WeatherDisplay:10.37,2013-03-08 15:52:00,
2013-03-08 10:57:00,33.8,32.5,29.99,NNE,22,5.8,5.8,95,0.00,CLR,,0.03,WeatherDisplay:10.37,2013-03-08 15:57:00,
2013-03-08 11:02:00,34.0,32.5,29.98,NNW,338,9.4,9.4,94,0.00,CLR,,0.03,WeatherDisplay:10.37,2013-03-08 16:02:00,
2013-03-08 11:07:00,34.0,32.5,29.98,NW,315,9.2,9.2,94,0.00,CLR,,0.03,WeatherDisplay:10.37,2013-03-08 16:07:00,
2013-03-08 11:12:00,34.0,32.7,29.98,NNW,338,9.2,9.2,95,0.00,CLR,,0.03,WeatherDisplay:10.37,2013-03-08 16:12:00,
2013-03-08 11:17:00,33.8,32.5,29.98,NNW,338,8.1,8.1,95,0.00,CLR,,0.03,WeatherDisplay:10.37,2013-03-08 16:17:00,
2013-03-08 11:22:00,34.2,32.9,29.98,SSW,202,8.1,8.1,95,0.00,CLR,,0.03,WeatherDisplay:10.37,2013-03-08 16:22:00,
2013-03-08 11:28:00,34.3,32.8,29.99,NW,315,7.8,7.8,94,0.00,CLR,,0.03,WeatherDisplay:10.37,2013-03-08 16:28:00,
2013-03-08 11:33:00,34.3,32.5,29.99,NNW,338,8.8,8.8,93,0.00,CLR,,0.03,WeatherDisplay:10.37,2013-03-08 16:33:00,
2013-03-08 11:38:00,34.3,32.5,29.99,NW,315,9.2,9.2,93,0.00,CLR,,0.03,WeatherDisplay:10.37,2013-03-08 16:38:00,
2013-03-08 11:43:00,34.5,32.4,29.99,West,270,8.1,8.1,92,0.00,CLR,,0.03,WeatherDisplay:10.37,2013-03-08 16:43:00,
2013-03-08 11:48:00,34.5,32.1,29.99,NW,315,8.1,8.1,91,0.00,CLR,,0.03,WeatherDisplay:10.37,2013-03-08 16:48:00,
2013-03-08 11:53:00,34.7,32.1,30.00,NW,315,13.8,13.8,90,0.00,CLR,,0.03,WeatherDisplay:10.37,2013-03-08 16:53:00,
2013-03-08 11:58:00,35.1,32.5,30.00,ENE,68,8.8,8.8,90,0.00,CLR,,0.03,WeatherDisplay:10.37,2013-03-08 16:58:00,
2013-03-08 12:03:00,35.1,32.5,29.99,NNW,338,9.2,9.2,90,0.00,CLR,,0.03,WeatherDisplay:10.37,2013-03-08 17:03:00,
2013-03-08 12:08:00,34.9,32.3,29.99,NNW,338,9.2,9.2,90,0.00,CLR,,0.03,WeatherDisplay:10.37,2013-03-08 17:08:00,
2013-03-08 12:13:00,34.7,32.6,29.99,NW,315,10.9,10.9,92,0.00,CLR,,0.03,WeatherDisplay:10.37,2013-03-08 17:13:00,
2013-03-08 12:19:00,35.1,32.7,29.99,NW,315,8.1,8.1,91,0.00,CLR,,0.03,WeatherDisplay:10.37,2013-03-08 17:19:00,
2013-03-08 12:24:00,35.2,32.8,29.99,NW,315,8.8,8.8,91,0.00,CLR,,0.03,WeatherDisplay:10.37,2013-03-08 17:24:00,
2013-03-08 12:29:00,35.1,32.7,29.98,West,270,8.1,8.1,91,0.00,CLR,,0.03,WeatherDisplay:10.37,2013-03-08 17:29:00,
2013-03-08 12:34:00,35.2,32.6,29.98,NW,315,12.7,12.7,90,0.00,CLR,,0.03,WeatherDisplay:10.37,2013-03-08 17:34:00,
2013-03-08 12:39:00,35.1,32.7,29.98,West,270,10.4,10.4,91,0.00,CLR,,0.03,WeatherDisplay:10.37,2013-03-08 17:39:00,
2013-03-08 12:44:00,35.1,32.7,29.98,NW,315,13.0,13.0,91,0.00,CLR,,0.03,WeatherDisplay:10.37,2013-03-08 17:44:00,
2013-03-08 12:49:00,35.2,32.6,29.97,NNW,338,10.4,10.4,90,0.00,CLR,,0.03,WeatherDisplay:10.37,2013-03-08 17:49:00,
2013-03-08 12:54:00,35.2,33.1,29.97,North,360,13.8,13.8,92,0.00,CLR,,0.03,WeatherDisplay:10.37,2013-03-08 17:54:00,
2013-03-08 12:59:00,35.2,33.1,29.97,NW,315,10.4,10.4,92,0.00,CLR,,0.03,WeatherDisplay:10.37,2013-03-08 17:59:00,
2013-03-08 13:04:00,35.1,33.3,29.97,WNW,292,9.2,9.2,93,0.00,CLR,,0.03,WeatherDisplay:10.37,2013-03-08 18:04:00,
2013-03-08 13:10:00,35.1,33.3,29.97,NNW,338,10.4,10.4,93,0.00,CLR,,0.03,WeatherDisplay:10.37,2013-03-08 18:10:00,
2013-03-08 13:15:00,35.2,33.6,29.98,NNW,338,10.9,10.9,94,0.00,CLR,,0.03,WeatherDisplay:10.37,2013-03-08 18:15:00,
2013-03-08 13:20:00,35.1,33.8,29.98,North,360,5.8,5.8,95,0.00,CLR,,0.03,WeatherDisplay:10.37,2013-03-08 18:20:00,
2013-03-08 13:25:00,35.1,33.5,29.97,West,270,10.4,10.4,94,0.00,CLR,,0.03,WeatherDisplay:10.37,2013-03-08 18:25:00,
2013-03-08 13:30:00,34.9,33.3,29.97,NNE,22,10.4,10.4,94,0.02,RA,,0.05,WeatherDisplay:10.37,2013-03-08 18:30:00,
2013-03-08 13:35:00,34.9,33.3,29.97,NNW,338,10.4,10.4,94,0.04,RA,,0.07,WeatherDisplay:10.37,2013-03-08 18:35:00,
2013-03-08 13:40:00,35.1,33.5,29.97,NW,315,11.5,11.5,94,0.06,RA,,0.09,WeatherDisplay:10.37,2013-03-08 18:40:00,
2013-03-08 13:45:00,35.2,33.4,29.97,North,360,9.2,9.6,93,0.08,RA,,0.11,WeatherDisplay:10.37,2013-03-08 18:45:00,
2013-03-08 13:50:00,35.6,33.8,29.97,NW,315,10.4,10.4,93,0.09,RA,,0.12,WeatherDisplay:10.37,2013-03-08 18:50:00,
2013-03-08 13:55:00,35.8,33.4,29.97,NW,315,10.4,10.4,91,0.10,RA,,0.13,WeatherDisplay:10.37,2013-03-08 18:55:00,
2013-03-08 14:01:00,35.8,33.4,29.97,NNW,338,5.8,5.8,91,0.11,RA,,0.14,WeatherDisplay:10.37,2013-03-08 19:01:00,
2013-03-08 14:06:00,36.1,33.7,29.97,NE,45,6.9,6.9,91,0.13,RA,,0.16,WeatherDisplay:10.37,2013-03-08 19:06:00,
2013-03-08 14:11:00,36.3,33.9,29.97,NNW,338,8.1,8.1,91,0.14,RA,,0.17,WeatherDisplay:10.37,2013-03-08 19:11:00,
2013-03-08 14:16:00,36.5,33.8,29.97,NE,45,10.4,10.4,90,0.16,RA,,0.19,WeatherDisplay:10.37,2013-03-08 19:16:00,
2013-03-08 14:21:00,36.5,33.8,29.97,NNW,338,8.1,8.1,90,0.16,RA,,0.20,WeatherDisplay:10.37,2013-03-08 19:21:00,
2013-03-08 14:26:00,36.9,34.2,29.97,NNW,338,5.8,5.8,90,0.18,RA,,0.21,WeatherDisplay:10.37,2013-03-08 19:26:00,
2013-03-08 14:31:00,37.0,34.3,29.97,NNW,338,8.3,8.3,90,0.17,RA,,0.23,WeatherDisplay:10.37,2013-03-08 19:31:00,
2013-03-08 14:36:00,37.6,34.7,29.97,East,90,8.1,8.1,89,0.17,RA,,0.24,WeatherDisplay:10.37,2013-03-08 19:36:00,
2013-03-08 14:41:00,37.8,34.6,29.97,NW,315,9.2,9.2,88,0.16,RA,,0.25,WeatherDisplay:10.37,2013-03-08 19:41:00,
2013-03-08 14:46:00,37.6,34.4,29.97,North,360,11.5,11.5,88,0.16,RA,,0.27,WeatherDisplay:10.37,2013-03-08 19:46:00,
2013-03-08 14:52:00,37.4,34.2,29.98,NW,315,8.1,8.1,88,0.16,RA,,0.28,WeatherDisplay:10.37,2013-03-08 19:52:00,
2013-03-08 14:57:00,37.6,34.4,29.98,WNW,292,9.2,9.2,88,0.15,RA,,0.29,WeatherDisplay:10.37,2013-03-08 19:57:00,
2013-03-08 15:02:00,37.8,34.6,29.98,NW,315,6.9,6.9,88,0.16,RA,,0.30,WeatherDisplay:10.37,2013-03-08 20:02:00,
2013-03-08 15:07:00,37.6,34.4,29.98,North,360,6.9,6.9,88,0.15,RA,,0.31,WeatherDisplay:10.37,2013-03-08 20:07:00,
2013-03-08 15:12:00,37.9,34.4,29.98,NNW,338,9.2,9.2,87,0.15,RA,,0.32,WeatherDisplay:10.37,2013-03-08 20:12:00,
2013-03-08 15:17:00,38.1,34.6,29.97,NNE,22,8.1,8.1,87,0.13,RA,,0.32,WeatherDisplay:10.37,2013-03-08 20:17:00,
2013-03-08 15:22:00,38.3,34.5,29.97,NE,45,5.8,5.8,86,0.13,RA,,0.33,WeatherDisplay:10.37,2013-03-08 20:22:00,
2013-03-08 15:27:00,38.5,34.4,29.98,NNE,22,6.9,6.9,85,0.13,RA,,0.34,WeatherDisplay:10.37,2013-03-08 20:27:00,
2013-03-08 15:32:00,38.5,34.4,29.98,NNW,338,5.8,5.8,85,0.11,RA,,0.34,WeatherDisplay:10.37,2013-03-08 20:32:00,
2013-03-08 15:37:00,38.3,34.2,29.98,NNW,338,5.8,5.8,85,0.11,RA,,0.35,WeatherDisplay:10.37,2013-03-08 20:37:00,
2013-03-08 15:43:00,38.1,34.0,29.98,NNW,338,7.8,7.8,85,0.10,RA,,0.35,WeatherDisplay:10.37,2013-03-08 20:43:00,
2013-03-08 15:48:00,37.9,33.8,29.98,WNW,292,9.2,9.2,85,0.08,,,0.35,WeatherDisplay:10.37,2013-03-08 20:48:00,
2013-03-08 15:53:00,38.1,34.3,29.98,NNE,22,4.6,4.6,86,0.07,CLR,,0.35,WeatherDisplay:10.37,2013-03-08 20:53:00,
2013-03-08 15:58:00,38.1,34.3,29.98,North,360,5.8,5.8,86,0.07,RA,,0.36,WeatherDisplay:10.37,2013-03-08 20:58:00,
2013-03-08 16:03:00,38.1,34.0,29.99,NNE,22,8.1,8.1,85,0.06,RA,,0.36,WeatherDisplay:10.37,2013-03-08 21:03:00,
2013-03-08 16:08:00,38.1,34.0,29.99,NNE,22,4.6,4.6,85,0.05,CLR,,0.36,WeatherDisplay:10.37,2013-03-08 21:08:00,
2013-03-08 16:13:00,38.3,33.9,29.99,ENE,68,6.9,6.9,84,0.05,RA,,0.37,WeatherDisplay:10.37,2013-03-08 21:13:00,
2013-03-08 16:18:00,38.5,34.1,29.99,NNW,338,6.3,6.3,84,0.05,RA,,0.37,WeatherDisplay:10.37,2013-03-08 21:18:00,
2013-03-08 16:24:00,38.5,34.1,29.99,East,90,5.8,5.8,84,0.04,CLR,,0.37,WeatherDisplay:10.37,2013-03-08 21:24:00,
2013-03-08 16:29:00,38.5,33.8,30.00,NE,45,5.8,6.4,83,0.03,CLR,,0.37,WeatherDisplay:10.37,2013-03-08 21:29:00,
2013-03-08 16:34:00,38.5,33.8,30.00,North,360,5.8,5.8,83,0.03,CLR,,0.37,WeatherDisplay:10.37,2013-03-08 21:34:00,
2013-03-08 16:39:00,38.7,34.3,30.00,NNW,338,5.8,6.9,84,0.02,CLR,,0.37,WeatherDisplay:10.37,2013-03-08 21:39:00,
2013-03-08 16:44:00,38.7,34.0,30.00,NNW,338,5.8,5.8,83,0.02,CLR,,0.37,WeatherDisplay:10.37,2013-03-08 21:44:00,
2013-03-08 16:49:00,38.7,34.0,30.00,NNE,22,5.8,5.8,83,0.03,RA,,0.38,WeatherDisplay:10.37,2013-03-08 21:49:00,
2013-03-08 16:54:00,38.7,33.7,30.00,NNW,338,5.8,5.8,82,0.03,RA,,0.38,WeatherDisplay:10.37,2013-03-08 21:54:00,
2013-03-08 16:59:00,38.8,33.5,30.00,WNW,292,9.2,9.2,81,0.02,CLR,,0.38,WeatherDisplay:10.37,2013-03-08 21:59:00,
2013-03-08 17:04:00,39.0,33.4,30.00,WNW,292,5.8,5.8,80,0.02,CLR,,0.38,WeatherDisplay:10.37,2013-03-08 22:04:00,
2013-03-08 17:09:00,39.0,33.0,30.00,East,90,8.1,8.1,79,0.02,CLR,,0.38,WeatherDisplay:10.37,2013-03-08 22:09:00,
2013-03-08 17:15:00,39.0,32.4,30.01,NW,315,5.8,5.8,77,0.01,CLR,,0.38,WeatherDisplay:10.37,2013-03-08 22:15:00,
2013-03-08 17:20:00,39.0,32.4,30.01,NNW,338,6.9,6.9,77,0.01,CLR,,0.38,WeatherDisplay:10.37,2013-03-08 22:20:00,
2013-03-08 17:25:00,39.0,32.4,30.02,West,270,6.8,6.8,77,0.01,CLR,,0.38,WeatherDisplay:10.37,2013-03-08 22:25:00,
2013-03-08 17:30:00,39.0,32.1,30.02,NNW,338,4.6,4.6,76,0.01,CLR,,0.38,WeatherDisplay:10.37,2013-03-08 22:30:00,
2013-03-08 17:35:00,39.0,32.1,30.02,NNW,338,10.4,10.4,76,0.01,CLR,,0.38,WeatherDisplay:10.37,2013-03-08 22:35:00,
2013-03-08 17:40:00,39.0,32.1,30.03,WNW,292,10.4,10.4,76,0.01,CLR,,0.38,WeatherDisplay:10.37,2013-03-08 22:40:00,
2013-03-08 17:45:00,39.2,32.3,30.03,NE,45,6.9,6.9,76,0.01,CLR,,0.38,WeatherDisplay:10.37,2013-03-08 22:45:00,
2013-03-08 17:50:00,39.0,32.4,30.04,NNW,338,5.8,5.8,77,0.00,CLR,,0.38,WeatherDisplay:10.37,2013-03-08 22:50:00,
2013-03-08 17:55:00,39.0,32.1,30.04,NNW,338,7.8,7.8,76,0.00,CLR,,0.38,WeatherDisplay:10.37,2013-03-08 22:55:00,
2013-03-08 18:00:00,39.2,32.3,30.04,NW,315,4.7,4.7,76,0.00,CLR,,0.38,WeatherDisplay:10.37,2013-03-08 23:00:00,
2013-03-08 18:06:00,39.2,32.3,30.04,SW,225,6.9,6.9,76,0.00,CLR,,0.38,WeatherDisplay:10.37,2013-03-08 23:06:00,
2013-03-08 18:11:00,39.4,32.5,30.04,NNE,22,5.8,5.8,76,0.00,CLR,,0.38,WeatherDisplay:10.37,2013-03-08 23:11:00,
2013-03-08 18:16:00,39.4,32.1,30.05,NE,45,6.3,6.3,75,0.00,CLR,,0.38,WeatherDisplay:10.37,2013-03-08 23:16:00,
2013-03-08 18:21:00,39.4,32.1,30.05,North,360,5.8,5.8,75,0.00,CLR,,0.38,WeatherDisplay:10.37,2013-03-08 23:21:00,
2013-03-08 18:26:00,39.4,32.1,30.06,NNW,338,5.8,5.8,75,0.00,CLR,,0.38,WeatherDisplay:10.37,2013-03-08 23:26:00,
2013-03-08 18:31:00,39.6,32.0,30.06,NNE,22,8.1,8.1,74,0.00,CLR,,0.38,WeatherDisplay:10.37,2013-03-08 23:31:00,
2013-03-08 18:36:00,39.6,32.0,30.06,NW,315,5.8,5.8,74,0.00,CLR,,0.38,WeatherDisplay:10.37,2013-03-08 23:36:00,
2013-03-08 18:41:00,39.7,32.1,30.07,West,270,4.7,4.7,74,0.00,CLR,,0.38,WeatherDisplay:10.37,2013-03-08 23:41:00,
2013-03-08 18:46:00,39.7,32.1,30.07,NNE,22,4.6,4.6,74,0.00,CLR,,0.38,WeatherDisplay:10.37,2013-03-08 23:46:00,
2013-03-08 18:51:00,39.7,32.1,30.07,WNW,292,5.8,5.8,74,0.00,CLR,,0.38,WeatherDisplay:10.37,2013-03-08 23:51:00,
2013-03-08 18:57:00,39.7,32.1,30.07,NNW,338,5.8,5.8,74,0.00,CLR,,0.38,WeatherDisplay:10.37,2013-03-08 23:57:00,
2013-03-08 19:02:00,39.9,32.3,30.08,WNW,292,8.1,8.1,74,0.00,CLR,,0.38,WeatherDisplay:10.37,2013-03-09 00:02:00,
2013-03-08 19:07:00,40.1,32.5,30.08,WNW,292,8.1,8.1,74,0.00,CLR,,0.38,WeatherDisplay:10.37,2013-03-09 00:07:00,
2013-03-08 19:12:00,40.3,32.3,30.08,NW,315,8.1,8.1,73,0.00,CLR,,0.38,WeatherDisplay:10.37,2013-03-09 00:12:00,
2013-03-08 19:17:00,40.6,32.3,30.08,NNE,22,8.1,8.1,72,0.00,CLR,,0.38,WeatherDisplay:10.37,2013-03-09 00:17:00,
2013-03-08 19:22:00,40.6,32.3,30.08,NNE,22,11.5,11.5,72,0.00,CLR,,0.38,WeatherDisplay:10.37,2013-03-09 00:22:00,
2013-03-08 19:27:00,40.8,32.5,30.08,NNE,22,9.2,9.2,72,0.00,CLR,,0.38,WeatherDisplay:10.37,2013-03-09 00:27:00,
2013-03-08 19:32:00,40.8,32.5,30.08,NW,315,13.8,13.8,72,0.00,CLR,,0.38,WeatherDisplay:10.37,2013-03-09 00:32:00,
2013-03-08 19:37:00,41.0,32.3,30.09,North,360,9.4,9.4,71,0.00,CLR,,0.38,WeatherDisplay:10.37,2013-03-09 00:37:00,
2013-03-08 19:42:00,41.0,32.3,30.09,NW,315,8.1,8.1,71,0.00,CLR,,0.38,WeatherDisplay:10.37,2013-03-09 00:42:00,
2013-03-08 19:48:00,41.0,32.3,30.09,NNW,338,5.8,6.2,71,0.00,CLR,,0.38,WeatherDisplay:10.37,2013-03-09 00:48:00,
2013-03-08 19:53:00,40.8,32.1,30.09,NNE,22,6.9,6.9,71,0.00,CLR,,0.38,WeatherDisplay:10.37,2013-03-09 00:53:00,
2013-03-08 19:58:00,41.0,32.3,30.09,NNW,338,8.3,8.7,71,0.00,CLR,,0.38,WeatherDisplay:10.37,2013-03-09 00:58:00,
2013-03-08 20:03:00,41.0,32.3,30.09,WNW,292,8.1,8.1,71,0.00,CLR,,0.38,WeatherDisplay:10.37,2013-03-09 01:03:00,
2013-03-08 20:08:00,40.8,32.1,30.09,NE,45,8.1,8.1,71,0.00,CLR,,0.38,WeatherDisplay:10.37,2013-03-09 01:08:00,
2013-03-08 20:13:00,40.8,32.1,30.10,NE,45,5.8,5.8,71,0.00,CLR,,0.38,WeatherDisplay:10.37,2013-03-09 01:13:00,
2013-03-08 20:18:00,40.8,32.1,30.10,NNW,338,5.8,5.8,71,0.00,CLR,,0.38,WeatherDisplay:10.37,2013-03-09 01:18:00,
2013-03-08 20:23:00,40.8,32.1,30.10,ENE,68,5.8,5.8,71,0.00,CLR,,0.38,WeatherDisplay:10.37,2013-03-09 01:23:00,
2013-03-08 20:28:00,40.8,32.1,30.10,NW,315,10.4,10.4,71,0.00,CLR,,0.38,WeatherDisplay:10.37,2013-03-09 01:28:00,
2013-03-08 20:33:00,40.8,32.1,30.10,West,270,6.9,7.1,71,0.00,CLR,,0.38,WeatherDisplay:10.37,2013-03-09 01:33:00,
2013-03-08 20:39:00,40.8,32.1,30.10,East,90,6.9,6.9,71,0.00,CLR,,0.38,WeatherDisplay:10.37,2013-03-09 01:39:00,
2013-03-08 20:44:00,40.8,32.1,30.10,West,270,9.2,9.2,71,0.00,CLR,,0.38,WeatherDisplay:10.37,2013-03-09 01:44:00,
2013-03-08 20:49:00,40.6,32.3,30.11,East,90,6.9,6.9,72,0.00,CLR,,0.38,WeatherDisplay:10.37,2013-03-09 01:49:00,
2013-03-08 20:54:00,40.6,31.9,30.11,NW,315,12.4,12.4,71,0.00,CLR,,0.38,WeatherDisplay:10.37,2013-03-09 01:54:00,
2013-03-08 20:59:00,40.8,32.1,30.11,WNW,292,8.1,8.1,71,0.00,CLR,,0.38,WeatherDisplay:10.37,2013-03-09 01:59:00,
2013-03-08 21:04:00,40.8,32.1,30.10,NW,315,10.4,10.4,71,0.00,CLR,,0.38,WeatherDisplay:10.37,2013-03-09 02:04:00,
2013-03-08 21:09:00,40.8,31.4,30.10,ESE,112,10.4,10.4,69,0.00,CLR,,0.38,WeatherDisplay:10.37,2013-03-09 02:09:00,
2013-03-08 21:14:00,40.8,31.4,30.10,North,360,9.2,9.2,69,0.00,CLR,,0.38,WeatherDisplay:10.37,2013-03-09 02:14:00,
2013-03-08 21:19:00,40.8,31.4,30.10,NNW,338,12.4,12.4,69,0.00,CLR,,0.38,WeatherDisplay:10.37,2013-03-09 02:19:00,
2013-03-08 21:24:00,40.8,31.4,30.11,North,360,7.8,7.8,69,0.00,CLR,,0.38,WeatherDisplay:10.37,2013-03-09 02:24:00,
2013-03-08 21:30:00,40.8,31.1,30.11,North,360,10.9,10.9,68,0.00,CLR,,0.38,WeatherDisplay:10.37,2013-03-09 02:30:00,
2013-03-08 21:35:00,40.8,31.1,30.11,NNW,338,9.2,9.2,68,0.00,CLR,,0.38,WeatherDisplay:10.37,2013-03-09 02:35:00,
2013-03-08 21:40:00,40.6,30.9,30.11,SSW,202,7.8,7.8,68,0.00,CLR,,0.38,WeatherDisplay:10.37,2013-03-09 02:40:00,
2013-03-08 21:45:00,40.5,31.1,30.11,WNW,292,10.4,10.4,69,0.00,CLR,,0.38,WeatherDisplay:10.37,2013-03-09 02:45:00,
2013-03-08 21:50:00,40.8,30.7,30.11,NW,315,12.7,12.7,67,0.00,CLR,,0.38,WeatherDisplay:10.37,2013-03-09 02:50:00,
2013-03-08 21:55:00,40.8,30.7,30.11,WNW,292,7.3,7.3,67,0.00,CLR,,0.38,WeatherDisplay:10.37,2013-03-09 02:55:00,
2013-03-08 22:00:00,40.8,30.7,30.10,NNE,22,6.9,6.9,67,0.00,CLR,,0.38,WeatherDisplay:10.37,2013-03-09 03:00:00,
2013-03-08 22:05:00,40.8,30.3,30.10,WSW,248,8.1,8.1,66,0.00,CLR,,0.38,WeatherDisplay:10.37,2013-03-09 03:05:00,
2013-03-08 22:10:00,40.8,30.3,30.10,West,270,11.5,11.5,66,0.00,CLR,,0.38,WeatherDisplay:10.37,2013-03-09 03:10:00,
2013-03-08 22:16:00,40.6,30.1,30.11,North,360,8.1,8.1,66,0.00,CLR,,0.38,WeatherDisplay:10.37,2013-03-09 03:16:00,
2013-03-08 22:21:00,40.6,30.1,30.11,NNW,338,9.9,9.9,66,0.00,CLR,,0.38,WeatherDisplay:10.37,2013-03-09 03:21:00,
2013-03-08 22:26:00,40.6,29.7,30.11,NNW,338,9.2,9.2,65,0.00,CLR,,0.38,WeatherDisplay:10.37,2013-03-09 03:26:00,
2013-03-08 22:31:00,40.6,29.7,30.11,West,270,8.1,8.1,65,0.00,CLR,,0.38,WeatherDisplay:10.37,2013-03-09 03:31:00,
2013-03-08 22:36:00,40.6,29.7,30.12,NW,315,9.2,9.8,65,0.00,CLR,,0.38,WeatherDisplay:10.37,2013-03-09 03:36:00,
2013-03-08 22:41:00,40.5,29.7,30.12,NW,315,8.1,8.1,65,0.00,CLR,,0.38,WeatherDisplay:10.37,2013-03-09 03:41:00,
2013-03-08 22:46:00,40.5,29.7,30.12,NNW,338,9.2,9.2,65,0.00,CLR,,0.38,WeatherDisplay:10.37,2013-03-09 03:46:00,
2013-03-08 22:51:00,40.5,29.7,30.12,ENE,68,9.2,9.2,65,0.00,CLR,,0.38,WeatherDisplay:10.37,2013-03-09 03:51:00,
2013-03-08 22:56:00,40.3,29.5,30.12,NNE,22,8.1,8.1,65,0.00,CLR,,0.38,WeatherDisplay:10.37,2013-03-09 03:56:00,
2013-03-08 23:01:00,40.3,29.1,30.12,NNW,338,10.4,10.4,64,0.00,CLR,,0.38,WeatherDisplay:10.37,2013-03-09 04:01:00,
2013-03-08 23:07:00,40.1,28.9,30.12,NE,45,12.7,12.7,64,0.00,CLR,,0.38,WeatherDisplay:10.37,2013-03-09 04:07:00,
2013-03-08 23:12:00,40.1,28.9,30.12,NNW,338,9.2,9.2,64,0.00,CLR,,0.38,WeatherDisplay:10.37,2013-03-09 04:12:00,
2013-03-08 23:17:00,40.1,28.5,30.12,NNE,22,9.9,9.9,63,0.00,CLR,,0.38,WeatherDisplay:10.37,2013-03-09 04:17:00,
2013-03-08 23:22:00,40.1,28.1,30.12,NW,315,8.1,8.1,62,0.00,CLR,,0.38,WeatherDisplay:10.37,2013-03-09 04:22:00,
2013-03-08 23:27:00,39.9,28.3,30.12,NNE,22,10.4,10.4,63,0.00,CLR,,0.38,WeatherDisplay:10.37,2013-03-09 04:27:00,
2013-03-08 23:32:00,39.9,28.3,30.12,East,90,10.4,10.4,63,0.00,CLR,,0.38,WeatherDisplay:10.37,2013-03-09 04:32:00,
2013-03-08 23:37:00,39.7,28.5,30.12,NW,315,9.2,9.2,64,0.00,CLR,,0.38,WeatherDisplay:10.37,2013-03-09 04:37:00,
2013-03-08 23:42:00,39.7,28.5,30.12,NW,315,6.9,6.9,64,0.00,CLR,,0.38,WeatherDisplay:10.37,2013-03-09 04:42:00,
2013-03-08 23:47:00,39.6,28.4,30.12,NE,45,8.1,8.1,64,0.00,CLR,,0.38,WeatherDisplay:10.37,2013-03-09 04:47:00,
2013-03-08 23:52:00,39.4,28.6,30.12,NNW,338,10.4,10.4,65,0.00,CLR,,0.38,WeatherDisplay:10.37,2013-03-09 04:52:00,
2013-03-08 23:58:00,39.2,28.4,30.12,NW,315,10.4,10.4,65,0.00,CLR,,0.38,WeatherDisplay:10.37,2013-03-09 04:58:00,